createdAt,value
2018-09-26T00:02:03.867Z,6.99
2018-09-26T00:04:31.731Z,6.96
2018-09-26T00:06:59.221Z,6.93
2018-09-26T00:09:27.225Z,6.92
2018-09-26T00:11:54.761Z,6.91
2018-09-26T00:14:22.244Z,6.82
2018-09-26T00:16:49.810Z,6.79
2018-09-26T00:19:17.267Z,6.76
2018-09-26T00:21:44.839Z,6.72
2018-09-26T00:24:12.497Z,6.67
2018-09-26T00:26:39.907Z,6.56
2018-09-26T00:29:07.371Z,6.51
2018-09-26T00:31:34.864Z,6.49
2018-09-26T00:34:02.373Z,6.46
2018-09-26T00:36:29.952Z,6.44
2018-09-26T00:38:57.427Z,6.41
2018-09-26T00:41:24.893Z,6.35
2018-09-26T00:43:52.297Z,6.32
2018-09-26T00:46:19.747Z,6.34
2018-09-26T00:48:47.153Z,6.42
2018-09-26T00:51:14.590Z,6.46
2018-09-26T00:53:42.031Z,6.51
2018-09-26T00:56:09.643Z,6.54
2018-09-26T00:58:37.097Z,6.58
2018-09-26T01:01:04.645Z,6.62
2018-09-26T01:03:32.016Z,6.60
2018-09-26T01:05:59.483Z,6.58
2018-09-26T01:08:27.017Z,6.53
2018-09-26T01:10:54.401Z,6.51
2018-09-26T01:13:21.767Z,6.47
2018-09-26T01:15:49.287Z,6.41
2018-09-26T01:18:16.879Z,6.41
2018-09-26T01:20:44.687Z,6.35
2018-09-26T01:23:12.590Z,6.34
2018-09-26T01:25:40.425Z,6.41
2018-09-26T01:28:07.873Z,6.44
2018-09-26T01:30:35.375Z,6.41
2018-09-26T01:33:02.884Z,6.39
2018-09-26T01:35:30.320Z,6.39
2018-09-26T01:37:57.760Z,6.36
2018-09-26T01:40:25.195Z,6.35
2018-09-26T01:42:52.583Z,6.30
2018-09-26T01:45:20.343Z,6.25
2018-09-26T01:47:47.711Z,6.18
2018-09-26T01:50:15.149Z,6.18
2018-09-26T01:52:42.557Z,6.18
2018-09-26T01:55:10.029Z,6.15
2018-09-26T01:57:37.449Z,6.13
2018-09-26T02:00:05.229Z,6.09
2018-09-26T02:02:32.859Z,6.05
2018-09-26T02:05:00.271Z,5.99
2018-09-26T02:07:27.787Z,5.94
2018-09-26T02:09:55.297Z,5.88
2018-09-26T02:12:22.745Z,5.82
2018-09-26T02:14:50.215Z,5.80
2018-09-26T02:17:17.683Z,5.78
2018-09-26T02:19:45.065Z,5.77
2018-09-26T02:22:12.579Z,5.77
2018-09-26T02:24:40.005Z,5.79
2018-09-26T02:27:07.669Z,5.83
2018-09-26T02:29:35.164Z,5.77
2018-09-26T02:32:02.751Z,5.72
2018-09-26T02:34:30.179Z,5.68
2018-09-26T02:36:57.705Z,5.65
2018-09-26T02:39:26.159Z,5.64
2018-09-26T02:41:53.609Z,5.65
2018-09-26T02:44:21.432Z,5.62
2018-09-26T02:46:49.283Z,5.62
2018-09-26T02:49:16.679Z,5.63
2018-09-26T02:51:44.188Z,5.63
2018-09-26T02:54:11.609Z,5.64
2018-09-26T02:56:39.169Z,5.61
2018-09-26T02:59:06.587Z,5.62
2018-09-26T03:01:34.003Z,5.63
2018-09-26T03:04:01.533Z,5.63
2018-09-26T03:06:28.960Z,5.62
2018-09-26T03:08:56.361Z,5.63
2018-09-26T03:11:23.893Z,5.62
2018-09-26T03:13:51.572Z,5.58
2018-09-26T03:16:19.067Z,5.54
2018-09-26T03:18:46.569Z,5.55
2018-09-26T03:21:14.077Z,5.54
2018-09-26T03:23:41.471Z,5.54
2018-09-26T03:26:09.000Z,5.57
2018-09-26T03:28:36.410Z,5.58
2018-09-26T03:31:03.957Z,5.65
2018-09-26T03:33:31.448Z,5.67
2018-09-26T03:35:58.998Z,5.70
2018-09-26T03:38:26.384Z,5.70
2018-09-26T03:40:53.904Z,5.71
2018-09-26T03:43:21.306Z,5.70
2018-09-26T03:45:48.876Z,5.64
2018-09-26T03:48:16.442Z,5.63
2018-09-26T03:50:43.986Z,5.59
2018-09-26T03:53:11.390Z,5.59
2018-09-26T03:55:38.932Z,5.56
2018-09-26T03:58:06.400Z,5.57
2018-09-26T04:00:33.812Z,5.56
2018-09-26T04:03:01.186Z,5.56
2018-09-26T04:05:28.630Z,5.54
2018-09-26T04:07:56.194Z,5.51
2018-09-26T04:10:23.746Z,5.49
2018-09-26T04:12:51.481Z,5.52
2018-09-26T04:15:18.792Z,5.58
2018-09-26T04:17:46.148Z,5.60
2018-09-26T04:20:13.686Z,5.65
2018-09-26T04:22:41.209Z,5.69
2018-09-26T04:25:08.654Z,5.74
2018-09-26T04:27:36.134Z,5.74
2018-09-26T04:30:04.026Z,5.77
2018-09-26T04:32:31.426Z,5.75
2018-09-26T04:34:58.822Z,5.89
2018-09-26T04:37:26.232Z,5.91
2018-09-26T04:39:53.696Z,5.92
2018-09-26T04:42:21.563Z,5.93
2018-09-26T04:44:49.002Z,5.99
2018-09-26T04:47:16.438Z,6.01
2018-09-26T04:49:43.851Z,6.05
2018-09-26T04:52:11.290Z,6.06
2018-09-26T04:54:38.714Z,6.03
2018-09-26T04:57:06.352Z,6.00
2018-09-26T04:59:33.930Z,5.98
2018-09-26T05:02:01.464Z,5.99
2018-09-26T05:04:28.972Z,5.98
2018-09-26T05:06:56.403Z,5.96
2018-09-26T05:09:23.934Z,5.98
2018-09-26T05:11:51.660Z,5.99
2018-09-26T05:14:19.098Z,5.98
2018-09-26T05:16:46.557Z,5.97
2018-09-26T05:19:14.146Z,5.96
2018-09-26T05:21:41.652Z,5.99
2018-09-26T05:24:09.166Z,5.99
2018-09-26T05:26:36.657Z,6.05
2018-09-26T05:29:04.087Z,6.14
2018-09-26T05:31:31.460Z,6.26
2018-09-26T05:33:58.886Z,6.26
2018-09-26T05:36:26.464Z,6.31
2018-09-26T05:38:54.162Z,6.38
2018-09-26T05:41:21.658Z,6.50
2018-09-26T05:43:49.170Z,6.61
2018-09-26T05:46:16.632Z,6.74
2018-09-26T05:48:44.485Z,6.88
2018-09-26T05:51:11.982Z,7.04
2018-09-26T05:53:39.485Z,7.19
2018-09-26T05:56:07.072Z,7.41
2018-09-26T05:58:34.516Z,7.75
2018-09-26T06:01:01.972Z,8.10
2018-09-26T06:03:29.374Z,8.40
2018-09-26T06:05:56.779Z,8.75
2018-09-26T06:08:24.183Z,9.04
2018-09-26T06:10:51.964Z,9.37
2018-09-26T06:13:19.310Z,9.77
2018-09-26T06:15:46.742Z,10.57
2018-09-26T06:18:14.318Z,11.36
2018-09-26T06:20:41.753Z,11.96
2018-09-26T06:23:09.125Z,12.46
2018-09-26T06:25:36.575Z,12.89
2018-09-26T06:28:03.998Z,13.37
2018-09-26T06:30:31.435Z,13.63
2018-09-26T06:32:58.829Z,13.32
2018-09-26T06:35:26.278Z,13.14
2018-09-26T06:37:53.649Z,13.08
2018-09-26T06:40:21.251Z,13.17
2018-09-26T06:42:49.385Z,13.35
2018-09-26T06:45:16.809Z,13.56
2018-09-26T06:47:44.230Z,13.91
2018-09-26T06:50:11.649Z,14.14
2018-09-26T06:52:39.050Z,14.79
2018-09-26T06:55:06.466Z,15.73
2018-09-26T06:57:33.878Z,17.14
2018-09-26T07:00:01.346Z,18.15
2018-09-26T07:02:28.771Z,19.04
2018-09-26T07:04:56.158Z,20.55
2018-09-26T07:07:23.603Z,21.38
2018-09-26T07:09:51.036Z,22.05
2018-09-26T07:12:18.514Z,23.05
2018-09-26T07:14:45.849Z,23.80
2018-09-26T07:17:13.623Z,23.91
2018-09-26T07:19:41.037Z,24.02
2018-09-26T07:22:08.519Z,24.42
2018-09-26T07:24:35.971Z,24.72
2018-09-26T07:27:03.510Z,24.78
2018-09-26T07:29:31.084Z,25.92
2018-09-26T07:31:58.578Z,27.64
2018-09-26T07:34:31.834Z,29.18
2018-09-26T07:36:59.627Z,31.33
2018-09-26T07:39:27.094Z,32.81
2018-09-26T07:41:54.557Z,33.32
2018-09-26T07:44:22.043Z,34.07
2018-09-26T07:46:49.682Z,34.37
2018-09-26T07:49:17.180Z,35.10
2018-09-26T07:51:44.662Z,34.73
2018-09-26T07:54:12.162Z,34.78
2018-09-26T07:56:39.631Z,34.93
2018-09-26T07:59:07.235Z,33.77
2018-09-26T08:01:34.888Z,33.35
2018-09-26T08:04:02.411Z,32.30
2018-09-26T08:06:29.928Z,32.03
2018-09-26T08:08:57.395Z,32.55
2018-09-26T08:11:24.890Z,32.51
2018-09-26T08:13:52.297Z,31.57
2018-09-26T08:16:19.752Z,32.14
2018-09-26T08:18:47.175Z,32.82
2018-09-26T08:21:14.712Z,33.14
2018-09-26T08:23:42.165Z,33.78
2018-09-26T08:26:09.590Z,33.17
2018-09-26T08:28:37.016Z,33.90
2018-09-26T08:31:04.458Z,34.07
2018-09-26T08:33:31.886Z,33.53
2018-09-26T08:35:59.415Z,34.09
2018-09-26T08:38:26.798Z,34.82
2018-09-26T08:40:54.326Z,34.52
2018-09-26T08:43:21.788Z,32.60
2018-09-26T08:45:49.222Z,31.65
2018-09-26T08:48:16.671Z,31.93
2018-09-26T08:50:44.161Z,32.42
2018-09-26T08:53:11.656Z,33.30
2018-09-26T08:55:39.072Z,33.42
2018-09-26T08:58:06.532Z,33.35
2018-09-26T09:00:35.910Z,33.31
2018-09-26T09:03:04.435Z,33.91
2018-09-26T09:05:31.942Z,33.52
2018-09-26T09:08:00.010Z,32.76
2018-09-26T09:10:27.571Z,31.78
2018-09-26T09:12:54.984Z,31.58
2018-09-26T09:15:22.513Z,31.21
2018-09-26T09:17:50.031Z,29.74
2018-09-26T09:20:17.474Z,27.48
2018-09-26T09:22:45.893Z,25.41
2018-09-26T09:25:13.364Z,24.18
2018-09-26T09:27:41.012Z,23.36
2018-09-26T09:30:08.414Z,22.70
2018-09-26T09:32:35.931Z,22.16
2018-09-26T09:35:03.530Z,21.89
2018-09-26T09:37:30.990Z,21.90
2018-09-26T09:39:58.447Z,21.31
2018-09-26T09:42:26.083Z,21.13
2018-09-26T09:44:53.546Z,21.11
2018-09-26T09:47:20.958Z,20.96
2018-09-26T09:49:48.442Z,20.96
2018-09-26T09:52:15.890Z,20.64
2018-09-26T09:54:43.286Z,20.66
2018-09-26T09:57:10.782Z,20.67
2018-09-26T09:59:38.226Z,20.63
2018-09-26T10:02:05.799Z,20.48
2018-09-26T10:04:33.234Z,20.41
2018-09-26T10:07:00.838Z,20.25
2018-09-26T10:09:28.386Z,20.20
2018-09-26T10:11:55.948Z,20.22
2018-09-26T10:14:23.360Z,19.96
2018-09-26T10:16:51.005Z,19.66
2018-09-26T10:19:18.462Z,19.54
2018-09-26T10:21:45.970Z,19.49
2018-09-26T10:24:13.461Z,19.43
2018-09-26T10:26:41.190Z,19.46
2018-09-26T10:29:08.713Z,19.42
2018-09-26T10:31:36.211Z,19.53
2018-09-26T10:34:03.826Z,19.39
2018-09-26T10:36:31.329Z,19.34
2018-09-26T10:38:58.760Z,19.30
2018-09-26T10:41:26.222Z,19.30
2018-09-26T10:43:53.694Z,19.28
2018-09-26T10:46:21.189Z,19.31
2018-09-26T10:48:48.662Z,19.30
2018-09-26T10:51:16.220Z,19.36
2018-09-26T10:53:43.626Z,19.41
2018-09-26T10:56:11.069Z,19.47
2018-09-26T10:58:38.446Z,19.61
2018-09-26T11:01:06.104Z,19.69
2018-09-26T11:03:33.565Z,19.77
2018-09-26T11:06:00.954Z,19.77
2018-09-26T11:08:28.410Z,19.74
2018-09-26T11:10:55.882Z,19.76
2018-09-26T11:13:23.306Z,19.80
2018-09-26T11:15:50.776Z,19.72
2018-09-26T11:18:18.330Z,19.72
2018-09-26T11:20:45.874Z,19.89
2018-09-26T11:23:13.279Z,19.89
2018-09-26T11:25:40.750Z,19.99
2018-09-26T11:28:08.209Z,20.08
2018-09-26T11:30:35.649Z,20.18
2018-09-26T11:33:03.085Z,20.00
2018-09-26T11:35:30.514Z,19.88
2018-09-26T11:37:57.925Z,19.85
2018-09-26T11:40:25.487Z,19.79
2018-09-26T11:42:52.885Z,19.77
2018-09-26T11:45:20.338Z,19.79
2018-09-26T11:47:47.778Z,19.72
2018-09-26T11:50:15.261Z,19.83
2018-09-26T11:52:42.674Z,19.90
2018-09-26T11:55:10.247Z,19.88
2018-09-26T11:57:37.722Z,19.90
2018-09-26T12:00:05.173Z,20.05
2018-09-26T12:02:32.994Z,20.26
2018-09-26T12:05:00.376Z,20.37
2018-09-26T12:07:27.790Z,20.57
2018-09-26T12:09:55.262Z,20.69
2018-09-26T12:12:23.345Z,20.81
2018-09-26T12:14:50.841Z,20.94
2018-09-26T12:17:18.293Z,21.07
2018-09-26T12:19:45.742Z,21.19
2018-09-26T12:22:13.186Z,21.16
2018-09-26T12:24:40.766Z,21.33
2018-09-26T12:27:08.169Z,21.43
2018-09-26T12:29:35.665Z,21.46
2018-09-26T12:32:03.133Z,21.52
2018-09-26T12:34:30.512Z,21.59
2018-09-26T12:36:58.013Z,21.70
2018-09-26T12:39:25.473Z,21.72
2018-09-26T12:41:52.887Z,21.65
2018-09-26T12:44:20.269Z,21.69
2018-09-26T12:46:48.583Z,21.71
2018-09-26T12:49:15.990Z,21.64
2018-09-26T12:51:43.557Z,21.74
2018-09-26T12:54:10.963Z,21.84
2018-09-26T12:56:38.397Z,21.87
2018-09-26T12:59:05.913Z,21.88
2018-09-26T13:01:33.477Z,22.00
2018-09-26T13:04:00.895Z,22.10
2018-09-26T13:06:28.394Z,22.28
2018-09-26T13:08:55.935Z,22.44
2018-09-26T13:11:23.473Z,22.54
2018-09-26T13:13:51.212Z,22.60
2018-09-26T13:16:18.719Z,22.65
2018-09-26T13:18:46.212Z,22.71
2018-09-26T13:21:13.749Z,22.58
2018-09-26T13:23:41.201Z,22.42
2018-09-26T13:26:08.815Z,22.43
2018-09-26T13:28:36.218Z,22.42
2018-09-26T13:31:03.915Z,22.40
2018-09-26T13:33:31.296Z,22.34
2018-09-26T13:35:58.729Z,22.18
2018-09-26T13:38:26.407Z,22.13
2018-09-26T13:40:53.761Z,22.06
2018-09-26T13:43:21.169Z,22.00
2018-09-26T13:45:48.983Z,21.94
2018-09-26T13:48:16.445Z,21.89
2018-09-26T13:50:43.909Z,21.81
2018-09-26T13:53:11.465Z,21.73
2018-09-26T13:55:38.897Z,21.55
2018-09-26T13:58:06.360Z,21.49
2018-09-26T14:00:34.005Z,21.43
2018-09-26T14:03:01.369Z,21.39
2018-09-26T14:05:28.839Z,21.32
2018-09-26T14:07:56.276Z,21.23
2018-09-26T14:10:23.715Z,21.20
2018-09-26T14:12:51.186Z,21.18
2018-09-26T14:15:18.790Z,21.10
2018-09-26T14:17:46.252Z,21.00
2018-09-26T14:20:13.868Z,20.98
2018-09-26T14:22:41.300Z,20.97
2018-09-26T14:25:08.731Z,21.02
2018-09-26T14:27:36.235Z,21.04
2018-09-26T14:30:03.904Z,20.94
2018-09-26T14:32:31.415Z,20.84
2018-09-26T14:34:58.863Z,20.72
2018-09-26T14:37:26.367Z,20.72
2018-09-26T14:39:53.949Z,20.71
2018-09-26T14:42:21.934Z,20.67
2018-09-26T14:44:49.518Z,20.53
2018-09-26T14:47:17.063Z,20.50
2018-09-26T14:49:44.518Z,20.51
2018-09-26T14:52:12.098Z,20.58
2018-09-26T14:54:39.606Z,20.59
2018-09-26T14:57:07.053Z,20.55
2018-09-26T14:59:34.535Z,20.51
2018-09-26T15:02:01.998Z,20.32
2018-09-26T15:04:29.485Z,20.28
2018-09-26T15:06:56.974Z,20.24
2018-09-26T15:09:24.506Z,20.27
2018-09-26T15:11:51.929Z,20.25
2018-09-26T15:14:19.427Z,20.14
2018-09-26T15:16:46.918Z,20.14
2018-09-26T15:19:14.357Z,19.97
2018-09-26T15:21:41.881Z,19.80
2018-09-26T15:24:09.367Z,19.67
2018-09-26T15:26:36.763Z,19.56
2018-09-26T15:29:04.228Z,19.46
2018-09-26T15:31:31.630Z,19.33
2018-09-26T15:33:59.025Z,19.22
2018-09-26T15:36:26.703Z,19.10
2018-09-26T15:38:54.287Z,18.96
2018-09-26T15:41:21.833Z,18.81
2018-09-26T15:43:49.291Z,18.66
2018-09-26T15:46:16.765Z,18.53
2018-09-26T15:48:44.241Z,18.42
2018-09-26T15:51:11.713Z,18.39
2018-09-26T15:53:39.149Z,18.25
2018-09-26T15:56:06.693Z,18.11
2018-09-26T15:58:34.095Z,17.98
2018-09-26T16:01:01.612Z,17.90
2018-09-26T16:03:29.085Z,17.83
2018-09-26T16:05:56.570Z,17.71
2018-09-26T16:08:24.147Z,17.56
2018-09-26T16:10:51.592Z,17.53
2018-09-26T16:13:18.988Z,17.74
2018-09-26T16:15:46.366Z,17.81
2018-09-26T16:18:13.777Z,17.62
2018-09-26T16:20:41.211Z,17.39
2018-09-26T16:23:08.681Z,17.21
2018-09-26T16:25:36.283Z,17.04
2018-09-26T16:28:03.716Z,16.89
2018-09-26T16:30:31.250Z,16.79
2018-09-26T16:32:58.705Z,16.64
2018-09-26T16:35:26.329Z,16.46
2018-09-26T16:37:53.735Z,16.29
2018-09-26T16:40:21.200Z,16.13
2018-09-26T16:42:48.690Z,16.08
2018-09-26T16:45:16.261Z,16.07
2018-09-26T16:47:43.566Z,15.95
2018-09-26T16:50:11.228Z,15.77
2018-09-26T16:52:38.643Z,15.57
2018-09-26T16:55:06.100Z,15.55
2018-09-26T16:57:33.563Z,15.43
2018-09-26T17:00:01.053Z,15.20
2018-09-26T17:02:28.546Z,15.01
2018-09-26T17:04:56.050Z,14.79
2018-09-26T17:07:23.604Z,14.60
2018-09-26T17:09:51.062Z,14.51
2018-09-26T17:12:18.541Z,14.46
2018-09-26T17:14:46.006Z,14.46
2018-09-26T17:17:13.428Z,14.40
2018-09-26T17:19:40.875Z,14.28
2018-09-26T17:22:08.353Z,14.17
2018-09-26T17:24:35.742Z,14.02
2018-09-26T17:27:03.223Z,13.87
2018-09-26T17:29:30.611Z,13.77
2018-09-26T17:31:58.060Z,13.67
2018-09-26T17:34:25.696Z,13.56
2018-09-26T17:36:53.441Z,13.49
2018-09-26T17:39:20.938Z,13.42
2018-09-26T17:41:48.413Z,13.35
2018-09-26T17:44:15.914Z,13.23
2018-09-26T17:46:43.401Z,13.13
2018-09-26T17:49:11.168Z,13.04
2018-09-26T17:51:38.747Z,12.97
2018-09-26T17:54:06.250Z,12.87
2018-09-26T17:56:33.753Z,12.80
2018-09-26T17:59:01.308Z,12.75
2018-09-26T18:01:28.979Z,12.74
2018-09-26T18:03:56.401Z,12.73
2018-09-26T18:06:23.875Z,12.67
2018-09-26T18:08:51.373Z,12.65
2018-09-26T18:11:18.885Z,12.61
2018-09-26T18:13:46.313Z,12.59
2018-09-26T18:16:13.991Z,12.54
2018-09-26T18:18:41.537Z,12.52
2018-09-26T18:21:08.991Z,12.48
2018-09-26T18:23:36.445Z,12.37
2018-09-26T18:26:04.064Z,12.27
2018-09-26T18:28:32.201Z,12.19
2018-09-26T18:31:01.130Z,12.08
2018-09-26T18:33:30.539Z,11.99
2018-09-26T18:35:58.840Z,11.91
2018-09-26T18:38:28.237Z,11.87
2018-09-26T18:40:55.872Z,11.81
2018-09-26T18:43:23.448Z,11.85
2018-09-26T18:45:51.202Z,11.81
2018-09-26T18:48:19.816Z,11.80
2018-09-26T18:50:48.456Z,11.88
2018-09-26T18:53:16.950Z,11.96
2018-09-26T18:55:44.575Z,11.88
2018-09-26T18:58:12.077Z,11.75
2018-09-26T19:00:39.591Z,11.60
2018-09-26T19:03:07.197Z,11.45
2018-09-26T19:05:34.712Z,11.41
2018-09-26T19:08:02.163Z,11.35
2018-09-26T19:10:29.798Z,11.32
2018-09-26T19:12:57.394Z,11.44
2018-09-26T19:15:24.903Z,11.37
2018-09-26T19:17:52.346Z,11.28
2018-09-26T19:20:19.815Z,11.30
2018-09-26T19:22:47.292Z,11.25
2018-09-26T19:25:14.866Z,11.13
2018-09-26T19:27:42.482Z,11.04
2018-09-26T19:30:10.151Z,10.97
2018-09-26T19:32:37.617Z,10.88
2018-09-26T19:35:05.175Z,10.85
2018-09-26T19:37:32.721Z,10.86
2018-09-26T19:40:00.241Z,10.81
2018-09-26T19:42:27.675Z,10.73
2018-09-26T19:44:55.151Z,10.71
2018-09-26T19:47:22.699Z,10.70
2018-09-26T19:49:50.128Z,10.68
2018-09-26T19:52:17.678Z,10.62
2018-09-26T19:54:45.116Z,10.60
2018-09-26T19:57:13.198Z,10.66
2018-09-26T19:59:40.872Z,10.66
2018-09-26T20:02:08.607Z,10.56
2018-09-26T20:04:36.354Z,10.51
2018-09-26T20:07:03.855Z,10.57
2018-09-26T20:09:31.503Z,10.54
2018-09-26T20:11:58.955Z,10.48
2018-09-26T20:14:26.443Z,10.43
2018-09-26T20:16:54.016Z,10.39
2018-09-26T20:19:21.437Z,10.35
2018-09-26T20:21:49.080Z,10.33
2018-09-26T20:24:16.506Z,10.31
2018-09-26T20:26:44.058Z,10.31
2018-09-26T20:29:11.492Z,10.22
2018-09-26T20:31:38.927Z,10.17
2018-09-26T20:34:06.436Z,10.11
2018-09-26T20:36:33.896Z,10.08
2018-09-26T20:39:01.398Z,10.05
2018-09-26T20:41:28.884Z,10.03
2018-09-26T20:43:56.395Z,9.97
2018-09-26T20:46:23.862Z,9.95
2018-09-26T20:48:51.674Z,9.91
2018-09-26T20:51:19.978Z,9.88
2018-09-26T20:53:47.426Z,9.80
2018-09-26T20:56:14.866Z,9.72
2018-09-26T20:58:42.298Z,9.66
2018-09-26T21:01:09.738Z,9.65
2018-09-26T21:03:37.146Z,9.63
2018-09-26T21:06:04.630Z,9.63
2018-09-26T21:08:32.040Z,9.62
2018-09-26T21:10:59.790Z,9.60
2018-09-26T21:13:28.047Z,9.64
2018-09-26T21:15:55.885Z,9.65
2018-09-26T21:18:23.270Z,9.56
2018-09-26T21:20:50.831Z,9.48
2018-09-26T21:23:18.276Z,9.42
2018-09-26T21:25:45.704Z,9.41
2018-09-26T21:28:13.322Z,9.41
2018-09-26T21:30:40.865Z,9.51
2018-09-26T21:33:08.559Z,9.50
2018-09-26T21:35:36.113Z,9.42
2018-09-26T21:38:03.545Z,9.42
2018-09-26T21:40:31.120Z,9.45
2018-09-26T21:42:58.673Z,9.43
2018-09-26T21:45:26.194Z,9.36
2018-09-26T21:47:53.707Z,9.30
2018-09-26T21:50:21.177Z,9.25
2018-09-26T21:52:48.759Z,9.29
2018-09-26T21:55:16.326Z,9.27
2018-09-26T21:57:43.742Z,9.23
2018-09-26T22:00:11.224Z,9.18
2018-09-26T22:02:38.678Z,9.12
2018-09-26T22:05:06.327Z,9.07
2018-09-26T22:07:33.936Z,9.06
2018-09-26T22:10:01.398Z,9.03
2018-09-26T22:12:28.870Z,9.01
2018-09-26T22:14:56.400Z,8.99
2018-09-26T22:17:23.805Z,8.97
2018-09-26T22:19:51.393Z,8.97
2018-09-26T22:22:19.001Z,8.96
2018-09-26T22:24:46.421Z,9.00
2018-09-26T22:27:13.892Z,9.07
2018-09-26T22:29:41.362Z,9.07
2018-09-26T22:32:08.788Z,9.06
2018-09-26T22:34:36.206Z,9.09
2018-09-26T22:37:03.703Z,9.09
2018-09-26T22:39:31.233Z,9.09
2018-09-26T22:41:58.617Z,9.13
2018-09-26T22:44:26.082Z,9.16
2018-09-26T22:46:53.487Z,9.09
2018-09-26T22:49:20.945Z,9.02
2018-09-26T22:51:48.581Z,8.95
2018-09-26T22:54:16.035Z,8.93
2018-09-26T22:56:43.461Z,8.89
2018-09-26T22:59:11.367Z,8.83
2018-09-26T23:01:38.797Z,8.78
2018-09-26T23:04:06.539Z,8.76
2018-09-26T23:06:33.998Z,8.71
2018-09-26T23:09:01.424Z,8.67
2018-09-26T23:11:28.987Z,8.67
2018-09-26T23:13:56.423Z,8.69
2018-09-26T23:16:23.857Z,8.69
2018-09-26T23:18:51.371Z,8.66
2018-09-26T23:21:18.785Z,8.63
2018-09-26T23:23:46.181Z,8.58
2018-09-26T23:26:13.630Z,8.53
2018-09-26T23:28:41.127Z,8.50
2018-09-26T23:31:08.577Z,8.46
2018-09-26T23:33:36.063Z,8.43
2018-09-26T23:36:03.549Z,8.38
2018-09-26T23:38:30.963Z,8.35
2018-09-26T23:40:58.500Z,8.36
2018-09-26T23:43:26.061Z,8.39
2018-09-26T23:45:53.593Z,8.35
2018-09-26T23:48:21.091Z,8.37
2018-09-26T23:50:48.516Z,8.42
2018-09-26T23:53:15.961Z,8.42
2018-09-26T23:55:43.377Z,8.42
2018-09-26T23:58:10.887Z,8.36
